sensor_id;sensor_type;location;lat;lon;timestamp;P1;durP1;ratioP1;P2;durP2;ratioP2
70967;SDS011;58629;48.808;8.820;2023-03-23T00:01:48;1.40;;;0.77;;
70967;SDS011;58629;48.808;8.820;2023-03-23T00:04:16;1.00;;;0.80;;
70967;SDS011;58629;48.808;8.820;2023-03-23T00:06:42;1.50;;;0.63;;
70967;SDS011;58629;48.808;8.820;2023-03-23T00:09:10;1.13;;;0.70;;
70967;SDS011;58629;48.808;8.820;2023-03-23T00:11:37;1.30;;;0.70;;
70967;SDS011;58629;48.808;8.820;2023-03-23T00:14:03;1.23;;;0.70;;
70967;SDS011;58629;48.808;8.820;2023-03-23T00:16:30;1.15;;;0.70;;
70967;SDS011;58629;48.808;8.820;2023-03-23T00:19:04;1.40;;;0.75;;
70967;SDS011;58629;48.808;8.820;2023-03-23T00:21:32;1.02;;;0.73;;
70967;SDS011;58629;48.808;8.820;2023-03-23T00:24:06;0.88;;;0.60;;
70967;SDS011;58629;48.808;8.820;2023-03-23T00:26:43;1.02;;;0.60;;
70967;SDS011;58629;48.808;8.820;2023-03-23T00:29:16;1.38;;;0.80;;
70967;SDS011;58629;48.808;8.820;2023-03-23T00:31:44;1.05;;;0.70;;
70967;SDS011;58629;48.808;8.820;2023-03-23T00:34:17;1.60;;;0.85;;
70967;SDS011;58629;48.808;8.820;2023-03-23T00:36:46;0.93;;;0.70;;
70967;SDS011;58629;48.808;8.820;2023-03-23T00:39:13;1.38;;;0.80;;
70967;SDS011;58629;48.808;8.820;2023-03-23T00:41:41;1.42;;;0.70;;
70967;SDS011;58629;48.808;8.820;2023-03-23T00:44:10;1.23;;;0.90;;
70967;SDS011;58629;48.808;8.820;2023-03-23T00:46:41;1.20;;;0.85;;
70967;SDS011;58629;48.808;8.820;2023-03-23T00:49:11;1.35;;;0.80;;
70967;SDS011;58629;48.808;8.820;2023-03-23T00:51:37;2.05;;;0.80;;
70967;SDS011;58629;48.808;8.820;2023-03-23T00:54:03;1.15;;;0.70;;
70967;SDS011;58629;48.808;8.820;2023-03-23T00:56:28;1.00;;;0.80;;
70967;SDS011;58629;48.808;8.820;2023-03-23T00:58:54;1.50;;;0.80;;
70967;SDS011;58629;48.808;8.820;2023-03-23T01:01:19;1.65;;;0.90;;
70967;SDS011;58629;48.808;8.820;2023-03-23T01:03:45;1.30;;;0.73;;
70967;SDS011;58629;48.808;8.820;2023-03-23T01:06:10;1.87;;;0.90;;
70967;SDS011;58629;48.808;8.820;2023-03-23T01:08:39;1.75;;;0.90;;
70967;SDS011;58629;48.808;8.820;2023-03-23T01:11:10;1.30;;;0.90;;
70967;SDS011;58629;48.808;8.820;2023-03-23T01:13:41;2.20;;;0.90;;
70967;SDS011;58629;48.808;8.820;2023-03-23T01:16:07;1.30;;;0.90;;
70967;SDS011;58629;48.808;8.820;2023-03-23T01:18:33;1.65;;;0.90;;
70967;SDS011;58629;48.808;8.820;2023-03-23T01:21:03;1.43;;;1.10;;
70967;SDS011;58629;48.808;8.820;2023-03-23T01:23:36;1.27;;;0.88;;
70967;SDS011;58629;48.808;8.820;2023-03-23T01:26:06;1.67;;;0.90;;
70967;SDS011;58629;48.808;8.820;2023-03-23T01:28:36;1.30;;;1.00;;
70967;SDS011;58629;48.808;8.820;2023-03-23T01:31:12;1.20;;;0.90;;
70967;SDS011;58629;48.808;8.820;2023-03-23T01:33:40;1.77;;;1.00;;
70967;SDS011;58629;48.808;8.820;2023-03-23T01:36:16;1.42;;;0.95;;
70967;SDS011;58629;48.808;8.820;2023-03-23T01:38:44;1.60;;;1.05;;
70967;SDS011;58629;48.808;8.820;2023-03-23T01:41:11;1.97;;;1.00;;
70967;SDS011;58629;48.808;8.820;2023-03-23T01:43:53;1.70;;;0.82;;
70967;SDS011;58629;48.808;8.820;2023-03-23T01:46:37;2.08;;;1.00;;
70967;SDS011;58629;48.808;8.820;2023-03-23T01:49:06;1.57;;;1.00;;
70967;SDS011;58629;48.808;8.820;2023-03-23T01:51:36;1.10;;;0.90;;
70967;SDS011;58629;48.808;8.820;2023-03-23T01:54:06;1.50;;;0.90;;
70967;SDS011;58629;48.808;8.820;2023-03-23T01:56:39;1.63;;;0.90;;
70967;SDS011;58629;48.808;8.820;2023-03-23T01:59:10;1.40;;;0.82;;
70967;SDS011;58629;48.808;8.820;2023-03-23T02:01:37;1.70;;;0.90;;
70967;SDS011;58629;48.808;8.820;2023-03-23T02:04:08;0.98;;;0.70;;
70967;SDS011;58629;48.808;8.820;2023-03-23T02:06:34;1.38;;;0.80;;
70967;SDS011;58629;48.808;8.820;2023-03-23T02:08:59;1.80;;;0.83;;
70967;SDS011;58629;48.808;8.820;2023-03-23T02:11:25;2.17;;;0.90;;
70967;SDS011;58629;48.808;8.820;2023-03-23T02:13:50;1.60;;;0.80;;
70967;SDS011;58629;48.808;8.820;2023-03-23T02:22:03;2.07;;;0.90;;
70967;SDS011;58629;48.808;8.820;2023-03-23T02:24:51;1.10;;;0.80;;
70967;SDS011;58629;48.808;8.820;2023-03-23T02:33:21;1.20;;;0.80;;
70967;SDS011;58629;48.808;8.820;2023-03-23T02:36:08;1.10;;;0.80;;
70967;SDS011;58629;48.808;8.820;2023-03-23T02:41:30;1.75;;;0.80;;
70967;SDS011;58629;48.808;8.820;2023-03-23T02:43:58;1.63;;;0.90;;
70967;SDS011;58629;48.808;8.820;2023-03-23T02:46:27;2.17;;;1.17;;
70967;SDS011;58629;48.808;8.820;2023-03-23T02:48:53;1.60;;;0.90;;
70967;SDS011;58629;48.808;8.820;2023-03-23T02:51:21;1.40;;;1.00;;
70967;SDS011;58629;48.808;8.820;2023-03-23T02:53:48;1.60;;;1.08;;
70967;SDS011;58629;48.808;8.820;2023-03-23T02:56:17;1.33;;;0.98;;
70967;SDS011;58629;48.808;8.820;2023-03-23T02:58:43;1.23;;;0.80;;
70967;SDS011;58629;48.808;8.820;2023-03-23T03:03:58;1.52;;;0.95;;
70967;SDS011;58629;48.808;8.820;2023-03-23T03:11:39;1.52;;;0.93;;
70967;SDS011;58629;48.808;8.820;2023-03-23T03:14:18;2.10;;;1.20;;
70967;SDS011;58629;48.808;8.820;2023-03-23T03:16:52;1.58;;;1.00;;
70967;SDS011;58629;48.808;8.820;2023-03-23T03:19:32;1.13;;;1.03;;
70967;SDS011;58629;48.808;8.820;2023-03-23T03:22:02;1.77;;;1.10;;
70967;SDS011;58629;48.808;8.820;2023-03-23T03:24:29;2.15;;;1.10;;
70967;SDS011;58629;48.808;8.820;2023-03-23T03:26:56;1.33;;;1.00;;
70967;SDS011;58629;48.808;8.820;2023-03-23T03:29:34;1.92;;;1.20;;
70967;SDS011;58629;48.808;8.820;2023-03-23T03:32:06;1.30;;;1.00;;
70967;SDS011;58629;48.808;8.820;2023-03-23T03:34:33;1.90;;;1.00;;
70967;SDS011;58629;48.808;8.820;2023-03-23T03:36:59;1.77;;;1.13;;
70967;SDS011;58629;48.808;8.820;2023-03-23T03:39:25;1.77;;;1.10;;
70967;SDS011;58629;48.808;8.820;2023-03-23T03:41:52;1.35;;;1.00;;
70967;SDS011;58629;48.808;8.820;2023-03-23T03:44:17;1.80;;;1.13;;
70967;SDS011;58629;48.808;8.820;2023-03-23T03:46:43;2.22;;;1.13;;
70967;SDS011;58629;48.808;8.820;2023-03-23T03:49:09;1.63;;;1.10;;
70967;SDS011;58629;48.808;8.820;2023-03-23T03:51:39;1.45;;;1.08;;
70967;SDS011;58629;48.808;8.820;2023-03-23T03:54:05;1.57;;;1.00;;
70967;SDS011;58629;48.808;8.820;2023-03-23T03:56:31;2.05;;;1.10;;
70967;SDS011;58629;48.808;8.820;2023-03-23T03:59:00;1.52;;;1.00;;
70967;SDS011;58629;48.808;8.820;2023-03-23T04:01:27;1.67;;;1.15;;
70967;SDS011;58629;48.808;8.820;2023-03-23T04:03:53;2.08;;;1.00;;
70967;SDS011;58629;48.808;8.820;2023-03-23T04:06:19;1.20;;;0.90;;
70967;SDS011;58629;48.808;8.820;2023-03-23T04:08:44;2.30;;;1.03;;
70967;SDS011;58629;48.808;8.820;2023-03-23T04:11:11;1.20;;;0.93;;
70967;SDS011;58629;48.808;8.820;2023-03-23T04:13:38;1.75;;;0.80;;
70967;SDS011;58629;48.808;8.820;2023-03-23T04:16:04;1.20;;;0.83;;
70967;SDS011;58629;48.808;8.820;2023-03-23T04:18:30;0.88;;;0.75;;
70967;SDS011;58629;48.808;8.820;2023-03-23T04:20:57;1.58;;;0.90;;
70967;SDS011;58629;48.808;8.820;2023-03-23T04:23:24;0.90;;;0.80;;
70967;SDS011;58629;48.808;8.820;2023-03-23T04:25:51;2.10;;;1.10;;
70967;SDS011;58629;48.808;8.820;2023-03-23T04:28:21;1.30;;;0.90;;
70967;SDS011;58629;48.808;8.820;2023-03-23T04:30:48;2.05;;;0.90;;
70967;SDS011;58629;48.808;8.820;2023-03-23T04:33:17;1.15;;;0.80;;
70967;SDS011;58629;48.808;8.820;2023-03-23T04:35:44;1.33;;;0.83;;
70967;SDS011;58629;48.808;8.820;2023-03-23T04:38:10;1.10;;;0.80;;
70967;SDS011;58629;48.808;8.820;2023-03-23T04:40:37;1.10;;;0.77;;
70967;SDS011;58629;48.808;8.820;2023-03-23T04:43:03;1.08;;;0.70;;
70967;SDS011;58629;48.808;8.820;2023-03-23T04:45:30;1.10;;;0.80;;
70967;SDS011;58629;48.808;8.820;2023-03-23T04:47:56;1.07;;;0.80;;
70967;SDS011;58629;48.808;8.820;2023-03-23T04:50:22;0.90;;;0.70;;
70967;SDS011;58629;48.808;8.820;2023-03-23T04:52:51;1.30;;;1.00;;
70967;SDS011;58629;48.808;8.820;2023-03-23T04:55:18;1.10;;;0.80;;
70967;SDS011;58629;48.808;8.820;2023-03-23T04:57:45;1.40;;;0.80;;
70967;SDS011;58629;48.808;8.820;2023-03-23T05:00:12;1.17;;;0.90;;
70967;SDS011;58629;48.808;8.820;2023-03-23T05:02:41;1.77;;;0.85;;
70967;SDS011;58629;48.808;8.820;2023-03-23T05:05:11;1.50;;;1.10;;
70967;SDS011;58629;48.808;8.820;2023-03-23T05:07:38;3.95;;;1.30;;
70967;SDS011;58629;48.808;8.820;2023-03-23T05:10:05;2.35;;;0.98;;
70967;SDS011;58629;48.808;8.820;2023-03-23T05:12:32;2.50;;;1.40;;
70967;SDS011;58629;48.808;8.820;2023-03-23T05:14:58;2.40;;;1.10;;
70967;SDS011;58629;48.808;8.820;2023-03-23T05:17:23;3.13;;;1.40;;
70967;SDS011;58629;48.808;8.820;2023-03-23T05:19:52;1.80;;;1.13;;
70967;SDS011;58629;48.808;8.820;2023-03-23T05:22:18;1.53;;;0.90;;
70967;SDS011;58629;48.808;8.820;2023-03-23T05:24:45;2.53;;;1.70;;
70967;SDS011;58629;48.808;8.820;2023-03-23T05:27:11;2.15;;;1.35;;
70967;SDS011;58629;48.808;8.820;2023-03-23T05:29:37;1.70;;;1.40;;
70967;SDS011;58629;48.808;8.820;2023-03-23T05:32:05;2.17;;;1.40;;
70967;SDS011;58629;48.808;8.820;2023-03-23T05:34:32;1.98;;;1.60;;
70967;SDS011;58629;48.808;8.820;2023-03-23T05:36:59;4.07;;;1.70;;
70967;SDS011;58629;48.808;8.820;2023-03-23T05:39:25;3.20;;;1.25;;
70967;SDS011;58629;48.808;8.820;2023-03-23T05:41:51;3.17;;;1.73;;
70967;SDS011;58629;48.808;8.820;2023-03-23T05:44:17;2.60;;;1.33;;
70967;SDS011;58629;48.808;8.820;2023-03-23T05:46:43;2.15;;;1.58;;
70967;SDS011;58629;48.808;8.820;2023-03-23T05:49:09;3.47;;;2.47;;
70967;SDS011;58629;48.808;8.820;2023-03-23T05:51:34;2.17;;;1.30;;
70967;SDS011;58629;48.808;8.820;2023-03-23T05:54:00;4.25;;;1.45;;
70967;SDS011;58629;48.808;8.820;2023-03-23T05:56:26;7.35;;;1.90;;
70967;SDS011;58629;48.808;8.820;2023-03-23T05:58:53;4.30;;;2.30;;
70967;SDS011;58629;48.808;8.820;2023-03-23T06:01:19;3.08;;;1.90;;
70967;SDS011;58629;48.808;8.820;2023-03-23T06:03:44;2.30;;;1.50;;
70967;SDS011;58629;48.808;8.820;2023-03-23T06:06:10;3.33;;;1.30;;
70967;SDS011;58629;48.808;8.820;2023-03-23T06:08:36;1.80;;;1.13;;
70967;SDS011;58629;48.808;8.820;2023-03-23T06:11:04;2.08;;;1.20;;
70967;SDS011;58629;48.808;8.820;2023-03-23T06:13:29;1.67;;;1.00;;
70967;SDS011;58629;48.808;8.820;2023-03-23T06:15:56;1.52;;;1.13;;
70967;SDS011;58629;48.808;8.820;2023-03-23T06:18:22;1.70;;;1.20;;
70967;SDS011;58629;48.808;8.820;2023-03-23T06:20:48;3.77;;;3.40;;
70967;SDS011;58629;48.808;8.820;2023-03-23T06:23:14;2.22;;;1.50;;
70967;SDS011;58629;48.808;8.820;2023-03-23T06:25:39;2.10;;;1.50;;
70967;SDS011;58629;48.808;8.820;2023-03-23T06:28:04;1.47;;;1.03;;
70967;SDS011;58629;48.808;8.820;2023-03-23T06:30:31;2.05;;;1.30;;
70967;SDS011;58629;48.808;8.820;2023-03-23T06:32:56;1.60;;;1.30;;
70967;SDS011;58629;48.808;8.820;2023-03-23T06:35:21;2.15;;;1.30;;
70967;SDS011;58629;48.808;8.820;2023-03-23T06:37:47;3.03;;;1.58;;
70967;SDS011;58629;48.808;8.820;2023-03-23T06:40:12;1.70;;;1.20;;
70967;SDS011;58629;48.808;8.820;2023-03-23T06:42:37;1.27;;;1.10;;
70967;SDS011;58629;48.808;8.820;2023-03-23T06:45:03;1.37;;;1.10;;
70967;SDS011;58629;48.808;8.820;2023-03-23T06:47:29;1.90;;;1.20;;
70967;SDS011;58629;48.808;8.820;2023-03-23T06:49:55;1.97;;;0.93;;
70967;SDS011;58629;48.808;8.820;2023-03-23T06:52:21;1.13;;;0.93;;
70967;SDS011;58629;48.808;8.820;2023-03-23T06:54:47;1.90;;;1.10;;
70967;SDS011;58629;48.808;8.820;2023-03-23T06:57:13;1.10;;;0.75;;
70967;SDS011;58629;48.808;8.820;2023-03-23T06:59:39;1.17;;;0.73;;
70967;SDS011;58629;48.808;8.820;2023-03-23T07:02:05;1.00;;;0.77;;
70967;SDS011;58629;48.808;8.820;2023-03-23T07:04:31;2.58;;;1.00;;
70967;SDS011;58629;48.808;8.820;2023-03-23T07:06:57;1.03;;;0.90;;
70967;SDS011;58629;48.808;8.820;2023-03-23T07:09:22;1.40;;;1.00;;
70967;SDS011;58629;48.808;8.820;2023-03-23T07:11:47;2.22;;;1.10;;
70967;SDS011;58629;48.808;8.820;2023-03-23T07:14:13;1.90;;;1.40;;
70967;SDS011;58629;48.808;8.820;2023-03-23T07:16:39;2.55;;;1.33;;
70967;SDS011;58629;48.808;8.820;2023-03-23T07:19:05;2.53;;;1.50;;
70967;SDS011;58629;48.808;8.820;2023-03-23T07:21:30;2.75;;;1.55;;
70967;SDS011;58629;48.808;8.820;2023-03-23T07:23:56;3.47;;;1.42;;
70967;SDS011;58629;48.808;8.820;2023-03-23T07:26:21;4.13;;;1.63;;
70967;SDS011;58629;48.808;8.820;2023-03-23T07:28:47;2.30;;;1.43;;
70967;SDS011;58629;48.808;8.820;2023-03-23T07:31:12;2.20;;;1.40;;
70967;SDS011;58629;48.808;8.820;2023-03-23T07:33:38;2.00;;;1.40;;
70967;SDS011;58629;48.808;8.820;2023-03-23T07:36:03;3.07;;;1.50;;
70967;SDS011;58629;48.808;8.820;2023-03-23T07:38:29;1.92;;;1.27;;
70967;SDS011;58629;48.808;8.820;2023-03-23T07:40:55;1.70;;;1.30;;
70967;SDS011;58629;48.808;8.820;2023-03-23T07:43:21;2.53;;;1.30;;
70967;SDS011;58629;48.808;8.820;2023-03-23T07:45:47;2.50;;;1.60;;
70967;SDS011;58629;48.808;8.820;2023-03-23T07:48:12;3.33;;;1.50;;
70967;SDS011;58629;48.808;8.820;2023-03-23T07:50:38;1.90;;;1.30;;
70967;SDS011;58629;48.808;8.820;2023-03-23T07:53:03;3.23;;;1.60;;
70967;SDS011;58629;48.808;8.820;2023-03-23T07:55:29;2.40;;;1.50;;
70967;SDS011;58629;48.808;8.820;2023-03-23T07:57:55;2.97;;;1.48;;
70967;SDS011;58629;48.808;8.820;2023-03-23T08:00:22;2.22;;;1.40;;
70967;SDS011;58629;48.808;8.820;2023-03-23T08:02:49;4.38;;;2.50;;
70967;SDS011;58629;48.808;8.820;2023-03-23T08:05:17;2.95;;;1.70;;
70967;SDS011;58629;48.808;8.820;2023-03-23T08:07:45;2.13;;;1.40;;
70967;SDS011;58629;48.808;8.820;2023-03-23T08:10:12;2.03;;;1.30;;
70967;SDS011;58629;48.808;8.820;2023-03-23T08:12:38;2.72;;;1.60;;
70967;SDS011;58629;48.808;8.820;2023-03-23T08:15:06;1.88;;;1.40;;
70967;SDS011;58629;48.808;8.820;2023-03-23T08:17:33;2.22;;;1.30;;
70967;SDS011;58629;48.808;8.820;2023-03-23T08:19:59;3.27;;;1.50;;
70967;SDS011;58629;48.808;8.820;2023-03-23T08:22:25;2.40;;;1.33;;
70967;SDS011;58629;48.808;8.820;2023-03-23T08:24:51;1.50;;;1.17;;
70967;SDS011;58629;48.808;8.820;2023-03-23T08:27:16;2.57;;;1.30;;
70967;SDS011;58629;48.808;8.820;2023-03-23T08:29:44;1.60;;;1.23;;
70967;SDS011;58629;48.808;8.820;2023-03-23T08:32:10;4.85;;;2.95;;
70967;SDS011;58629;48.808;8.820;2023-03-23T08:34:35;4.07;;;2.50;;
70967;SDS011;58629;48.808;8.820;2023-03-23T08:37:01;3.17;;;2.20;;
70967;SDS011;58629;48.808;8.820;2023-03-23T08:39:26;2.30;;;1.53;;
70967;SDS011;58629;48.808;8.820;2023-03-23T08:41:52;1.90;;;1.40;;
70967;SDS011;58629;48.808;8.820;2023-03-23T08:44:18;2.50;;;1.50;;
70967;SDS011;58629;48.808;8.820;2023-03-23T08:46:44;2.33;;;1.40;;
70967;SDS011;58629;48.808;8.820;2023-03-23T08:49:09;2.00;;;1.47;;
70967;SDS011;58629;48.808;8.820;2023-03-23T08:51:34;2.63;;;1.53;;
70967;SDS011;58629;48.808;8.820;2023-03-23T08:54:00;1.85;;;1.50;;
70967;SDS011;58629;48.808;8.820;2023-03-23T08:56:26;3.37;;;1.60;;
70967;SDS011;58629;48.808;8.820;2023-03-23T08:58:52;4.18;;;1.80;;
70967;SDS011;58629;48.808;8.820;2023-03-23T09:01:18;2.83;;;1.60;;
70967;SDS011;58629;48.808;8.820;2023-03-23T09:03:43;3.77;;;1.50;;
70967;SDS011;58629;48.808;8.820;2023-03-23T09:06:09;2.33;;;1.30;;
70967;SDS011;58629;48.808;8.820;2023-03-23T09:08:37;1.80;;;1.17;;
70967;SDS011;58629;48.808;8.820;2023-03-23T09:11:04;2.13;;;1.35;;
70967;SDS011;58629;48.808;8.820;2023-03-23T09:13:32;2.42;;;1.40;;
70967;SDS011;58629;48.808;8.820;2023-03-23T09:15:58;2.42;;;1.40;;
70967;SDS011;58629;48.808;8.820;2023-03-23T09:18:23;1.70;;;1.20;;
70967;SDS011;58629;48.808;8.820;2023-03-23T09:20:50;3.67;;;1.60;;
70967;SDS011;58629;48.808;8.820;2023-03-23T09:23:16;2.95;;;1.63;;
70967;SDS011;58629;48.808;8.820;2023-03-23T09:25:43;3.00;;;1.63;;
70967;SDS011;58629;48.808;8.820;2023-03-23T09:28:09;2.85;;;1.55;;
70967;SDS011;58629;48.808;8.820;2023-03-23T09:30:35;2.70;;;1.70;;
70967;SDS011;58629;48.808;8.820;2023-03-23T09:33:02;2.80;;;1.50;;
70967;SDS011;58629;48.808;8.820;2023-03-23T09:35:29;2.08;;;1.42;;
70967;SDS011;58629;48.808;8.820;2023-03-23T09:37:57;2.80;;;1.63;;
70967;SDS011;58629;48.808;8.820;2023-03-23T09:40:35;3.80;;;2.05;;
70967;SDS011;58629;48.808;8.820;2023-03-23T09:43:39;2.28;;;1.52;;
70967;SDS011;58629;48.808;8.820;2023-03-23T09:51:44;2.58;;;1.48;;
70967;SDS011;58629;48.808;8.820;2023-03-23T09:54:26;1.83;;;1.40;;
70967;SDS011;58629;48.808;8.820;2023-03-23T09:56:55;2.22;;;1.30;;
70967;SDS011;58629;48.808;8.820;2023-03-23T09:59:27;2.13;;;1.37;;
70967;SDS011;58629;48.808;8.820;2023-03-23T10:02:12;1.73;;;1.48;;
70967;SDS011;58629;48.808;8.820;2023-03-23T10:04:51;2.00;;;1.50;;
70967;SDS011;58629;48.808;8.820;2023-03-23T10:07:21;1.60;;;1.40;;
70967;SDS011;58629;48.808;8.820;2023-03-23T10:09:52;2.20;;;1.40;;
70967;SDS011;58629;48.808;8.820;2023-03-23T10:15:26;2.28;;;1.33;;
70967;SDS011;58629;48.808;8.820;2023-03-23T10:18:04;4.93;;;1.33;;
70967;SDS011;58629;48.808;8.820;2023-03-23T10:20:44;2.60;;;1.33;;
70967;SDS011;58629;48.808;8.820;2023-03-23T10:25:46;1.90;;;1.10;;
70967;SDS011;58629;48.808;8.820;2023-03-23T10:28:21;1.50;;;1.10;;
70967;SDS011;58629;48.808;8.820;2023-03-23T10:30:59;2.00;;;1.08;;
70967;SDS011;58629;48.808;8.820;2023-03-23T10:33:30;2.00;;;1.10;;
70967;SDS011;58629;48.808;8.820;2023-03-23T10:36:28;3.80;;;1.70;;
70967;SDS011;58629;48.808;8.820;2023-03-23T10:38:58;1.97;;;1.00;;
70967;SDS011;58629;48.808;8.820;2023-03-23T10:41:29;2.25;;;1.30;;
70967;SDS011;58629;48.808;8.820;2023-03-23T10:43:55;1.70;;;1.00;;
70967;SDS011;58629;48.808;8.820;2023-03-23T10:48:50;1.60;;;1.20;;
70967;SDS011;58629;48.808;8.820;2023-03-23T10:51:19;1.50;;;1.00;;
70967;SDS011;58629;48.808;8.820;2023-03-23T10:53:50;1.20;;;0.88;;
70967;SDS011;58629;48.808;8.820;2023-03-23T10:58:50;1.30;;;0.90;;
70967;SDS011;58629;48.808;8.820;2023-03-23T11:01:18;1.57;;;1.20;;
70967;SDS011;58629;48.808;8.820;2023-03-23T11:03:45;1.40;;;1.10;;
70967;SDS011;58629;48.808;8.820;2023-03-23T11:06:23;1.90;;;1.17;;
70967;SDS011;58629;48.808;8.820;2023-03-23T11:08:56;1.63;;;1.25;;
70967;SDS011;58629;48.808;8.820;2023-03-23T11:11:27;1.48;;;0.98;;
70967;SDS011;58629;48.808;8.820;2023-03-23T11:13:59;1.58;;;1.02;;
70967;SDS011;58629;48.808;8.820;2023-03-23T11:16:29;1.58;;;1.23;;
70967;SDS011;58629;48.808;8.820;2023-03-23T11:18:57;1.30;;;1.20;;
70967;SDS011;58629;48.808;8.820;2023-03-23T11:21:24;1.63;;;1.25;;
70967;SDS011;58629;48.808;8.820;2023-03-23T11:23:53;1.85;;;1.10;;
70967;SDS011;58629;48.808;8.820;2023-03-23T11:26:26;1.65;;;1.02;;
70967;SDS011;58629;48.808;8.820;2023-03-23T11:31:31;2.00;;;1.30;;
70967;SDS011;58629;48.808;8.820;2023-03-23T11:34:01;1.95;;;1.40;;
70967;SDS011;58629;48.808;8.820;2023-03-23T11:36:33;1.20;;;1.00;;
70967;SDS011;58629;48.808;8.820;2023-03-23T11:39:02;2.50;;;1.50;;
70967;SDS011;58629;48.808;8.820;2023-03-23T11:41:37;2.20;;;1.40;;
70967;SDS011;58629;48.808;8.820;2023-03-23T11:44:04;2.55;;;1.45;;
70967;SDS011;58629;48.808;8.820;2023-03-23T11:46:41;2.20;;;1.40;;
70967;SDS011;58629;48.808;8.820;2023-03-23T11:49:15;1.50;;;1.20;;
70967;SDS011;58629;48.808;8.820;2023-03-23T11:51:50;2.08;;;1.20;;
70967;SDS011;58629;48.808;8.820;2023-03-23T11:54:30;3.22;;;1.52;;
70967;SDS011;58629;48.808;8.820;2023-03-23T11:56:59;1.90;;;1.58;;
70967;SDS011;58629;48.808;8.820;2023-03-23T11:59:42;2.10;;;1.40;;
70967;SDS011;58629;48.808;8.820;2023-03-23T12:10:44;2.05;;;1.52;;
70967;SDS011;58629;48.808;8.820;2023-03-23T12:13:36;2.00;;;1.50;;
70967;SDS011;58629;48.808;8.820;2023-03-23T12:19:08;3.20;;;1.48;;
70967;SDS011;58629;48.808;8.820;2023-03-23T12:24:54;2.20;;;1.40;;
70967;SDS011;58629;48.808;8.820;2023-03-23T12:28:31;1.92;;;1.48;;
70967;SDS011;58629;48.808;8.820;2023-03-23T12:31:10;2.30;;;1.60;;
70967;SDS011;58629;48.808;8.820;2023-03-23T12:33:59;2.75;;;1.60;;
70967;SDS011;58629;48.808;8.820;2023-03-23T12:37:04;3.47;;;1.70;;
70967;SDS011;58629;48.808;8.820;2023-03-23T12:45:24;2.63;;;1.45;;
70967;SDS011;58629;48.808;8.820;2023-03-23T12:48:16;1.73;;;1.35;;
70967;SDS011;58629;48.808;8.820;2023-03-23T12:51:10;1.75;;;1.48;;
70967;SDS011;58629;48.808;8.820;2023-03-23T12:53:48;1.65;;;1.25;;
70967;SDS011;58629;48.808;8.820;2023-03-23T12:58:53;2.20;;;1.50;;
70967;SDS011;58629;48.808;8.820;2023-03-23T13:01:28;2.00;;;1.33;;
70967;SDS011;58629;48.808;8.820;2023-03-23T13:04:05;1.80;;;1.50;;
70967;SDS011;58629;48.808;8.820;2023-03-23T13:06:36;2.28;;;1.80;;
70967;SDS011;58629;48.808;8.820;2023-03-23T13:11:41;2.47;;;1.60;;
70967;SDS011;58629;48.808;8.820;2023-03-23T13:20:16;2.88;;;1.45;;
70967;SDS011;58629;48.808;8.820;2023-03-23T13:23:04;1.92;;;1.50;;
70967;SDS011;58629;48.808;8.820;2023-03-23T13:25:43;2.83;;;1.60;;
70967;SDS011;58629;48.808;8.820;2023-03-23T13:28:15;2.05;;;1.38;;
70967;SDS011;58629;48.808;8.820;2023-03-23T13:30:52;1.40;;;1.27;;
70967;SDS011;58629;48.808;8.820;2023-03-23T13:33:20;2.00;;;1.67;;
70967;SDS011;58629;48.808;8.820;2023-03-23T13:35:46;2.40;;;1.50;;
70967;SDS011;58629;48.808;8.820;2023-03-23T13:38:23;2.05;;;1.75;;
70967;SDS011;58629;48.808;8.820;2023-03-23T13:40:51;2.42;;;1.63;;
70967;SDS011;58629;48.808;8.820;2023-03-23T13:43:25;2.33;;;1.42;;
70967;SDS011;58629;48.808;8.820;2023-03-23T13:46:06;1.90;;;1.50;;
70967;SDS011;58629;48.808;8.820;2023-03-23T13:48:39;2.38;;;1.60;;
70967;SDS011;58629;48.808;8.820;2023-03-23T13:54:12;3.33;;;1.60;;
70967;SDS011;58629;48.808;8.820;2023-03-23T13:56:41;2.45;;;1.58;;
70967;SDS011;58629;48.808;8.820;2023-03-23T13:59:08;2.33;;;1.50;;
70967;SDS011;58629;48.808;8.820;2023-03-23T14:01:56;2.47;;;1.75;;
70967;SDS011;58629;48.808;8.820;2023-03-23T14:04:41;2.28;;;1.60;;
70967;SDS011;58629;48.808;8.820;2023-03-23T14:07:11;3.50;;;2.47;;
70967;SDS011;58629;48.808;8.820;2023-03-23T14:09:41;2.97;;;1.60;;
70967;SDS011;58629;48.808;8.820;2023-03-23T14:12:19;3.65;;;1.75;;
70967;SDS011;58629;48.808;8.820;2023-03-23T14:14:51;2.65;;;1.80;;
70967;SDS011;58629;48.808;8.820;2023-03-23T14:17:31;2.40;;;2.10;;
70967;SDS011;58629;48.808;8.820;2023-03-23T14:20:06;2.63;;;1.60;;
70967;SDS011;58629;48.808;8.820;2023-03-23T14:22:35;1.70;;;1.45;;
70967;SDS011;58629;48.808;8.820;2023-03-23T14:27:42;2.15;;;1.75;;
70967;SDS011;58629;48.808;8.820;2023-03-23T14:30:12;3.53;;;1.90;;
70967;SDS011;58629;48.808;8.820;2023-03-23T14:32:44;2.03;;;1.60;;
70967;SDS011;58629;48.808;8.820;2023-03-23T14:35:16;3.08;;;1.60;;
70967;SDS011;58629;48.808;8.820;2023-03-23T14:37:48;2.47;;;1.80;;
70967;SDS011;58629;48.808;8.820;2023-03-23T14:40:15;2.92;;;1.70;;
70967;SDS011;58629;48.808;8.820;2023-03-23T14:42:42;2.22;;;1.65;;
70967;SDS011;58629;48.808;8.820;2023-03-23T14:45:10;2.58;;;1.70;;
70967;SDS011;58629;48.808;8.820;2023-03-23T14:47:40;2.38;;;1.70;;
70967;SDS011;58629;48.808;8.820;2023-03-23T14:50:24;1.75;;;1.48;;
70967;SDS011;58629;48.808;8.820;2023-03-23T14:52:51;2.47;;;1.85;;
70967;SDS011;58629;48.808;8.820;2023-03-23T14:55:18;2.10;;;1.43;;
70967;SDS011;58629;48.808;8.820;2023-03-23T14:57:46;2.83;;;1.60;;
70967;SDS011;58629;48.808;8.820;2023-03-23T15:00:23;2.45;;;1.70;;
70967;SDS011;58629;48.808;8.820;2023-03-23T15:02:54;2.38;;;1.50;;
70967;SDS011;58629;48.808;8.820;2023-03-23T15:05:36;3.28;;;1.60;;
70967;SDS011;58629;48.808;8.820;2023-03-23T15:08:07;1.40;;;1.20;;
70967;SDS011;58629;48.808;8.820;2023-03-23T15:10:36;1.90;;;1.42;;
70967;SDS011;58629;48.808;8.820;2023-03-23T15:13:02;1.55;;;1.42;;
70967;SDS011;58629;48.808;8.820;2023-03-23T15:15:29;2.37;;;1.50;;
70967;SDS011;58629;48.808;8.820;2023-03-23T15:17:55;1.90;;;1.48;;
70967;SDS011;58629;48.808;8.820;2023-03-23T15:23:16;1.90;;;1.45;;
70967;SDS011;58629;48.808;8.820;2023-03-23T15:25:51;2.72;;;1.60;;
70967;SDS011;58629;48.808;8.820;2023-03-23T15:28:21;1.92;;;1.60;;
70967;SDS011;58629;48.808;8.820;2023-03-23T15:30:54;2.92;;;1.80;;
70967;SDS011;58629;48.808;8.820;2023-03-23T15:33:25;1.73;;;1.42;;
70967;SDS011;58629;48.808;8.820;2023-03-23T15:35:54;2.25;;;1.50;;
70967;SDS011;58629;48.808;8.820;2023-03-23T15:38:25;2.30;;;1.58;;
70967;SDS011;58629;48.808;8.820;2023-03-23T15:40:55;2.45;;;1.50;;
70967;SDS011;58629;48.808;8.820;2023-03-23T15:43:26;2.17;;;1.52;;
70967;SDS011;58629;48.808;8.820;2023-03-23T15:48:29;3.03;;;1.70;;
70967;SDS011;58629;48.808;8.820;2023-03-23T15:50:56;2.92;;;1.67;;
70967;SDS011;58629;48.808;8.820;2023-03-23T15:56:07;2.00;;;1.40;;
70967;SDS011;58629;48.808;8.820;2023-03-23T15:58:34;1.98;;;1.50;;
70967;SDS011;58629;48.808;8.820;2023-03-23T16:01:01;3.33;;;1.50;;
70967;SDS011;58629;48.808;8.820;2023-03-23T16:03:52;2.35;;;1.58;;
70967;SDS011;58629;48.808;8.820;2023-03-23T16:06:22;2.50;;;1.60;;
70967;SDS011;58629;48.808;8.820;2023-03-23T16:08:49;1.80;;;1.48;;
70967;SDS011;58629;48.808;8.820;2023-03-23T16:11:16;2.00;;;1.60;;
70967;SDS011;58629;48.808;8.820;2023-03-23T16:13:43;1.95;;;1.48;;
70967;SDS011;58629;48.808;8.820;2023-03-23T16:16:11;2.60;;;1.70;;
70967;SDS011;58629;48.808;8.820;2023-03-23T16:18:40;2.13;;;1.35;;
70967;SDS011;58629;48.808;8.820;2023-03-23T16:21:06;2.30;;;1.60;;
70967;SDS011;58629;48.808;8.820;2023-03-23T16:23:31;2.33;;;1.50;;
70967;SDS011;58629;48.808;8.820;2023-03-23T16:25:57;1.83;;;1.50;;
70967;SDS011;58629;48.808;8.820;2023-03-23T16:28:22;2.17;;;1.50;;
70967;SDS011;58629;48.808;8.820;2023-03-23T16:30:48;2.75;;;1.60;;